sensor_id;sensor_type;location;lat;lon;timestamp;temperature;humidity
19174;DHT22;9719;49.322;8.536;2022-07-17T00:01:02;19.90;47.30
19174;DHT22;9719;49.322;8.536;2022-07-17T00:06:04;19.80;47.50
19174;DHT22;9719;49.322;8.536;2022-07-17T00:11:08;19.80;47.50
19174;DHT22;9719;49.322;8.536;2022-07-17T00:16:10;19.80;47.90
19174;DHT22;9719;49.322;8.536;2022-07-17T00:21:12;19.60;48.10
19174;DHT22;9719;49.322;8.536;2022-07-17T00:26:15;19.60;48.10
19174;DHT22;9719;49.322;8.536;2022-07-17T00:31:17;19.50;48.40
19174;DHT22;9719;49.322;8.536;2022-07-17T00:36:19;19.30;48.60
19174;DHT22;9719;49.322;8.536;2022-07-17T00:41:22;19.30;48.80
19174;DHT22;9719;49.322;8.536;2022-07-17T00:46:27;19.60;49.40
19174;DHT22;9719;49.322;8.536;2022-07-17T00:51:30;19.00;49.60
19174;DHT22;9719;49.322;8.536;2022-07-17T00:56:34;19.00;49.80
19174;DHT22;9719;49.322;8.536;2022-07-17T01:01:38;18.80;49.80
19174;DHT22;9719;49.322;8.536;2022-07-17T01:06:39;18.70;50.20
19174;DHT22;9719;49.322;8.536;2022-07-17T01:11:43;18.50;50.40
19174;DHT22;9719;49.322;8.536;2022-07-17T01:16:46;18.40;50.50
19174;DHT22;9719;49.322;8.536;2022-07-17T01:21:50;18.20;50.70
19174;DHT22;9719;49.322;8.536;2022-07-17T01:26:52;18.00;51.30
19174;DHT22;9719;49.322;8.536;2022-07-17T01:31:54;17.90;51.50
19174;DHT22;9719;49.322;8.536;2022-07-17T01:36:57;17.90;51.90
19174;DHT22;9719;49.322;8.536;2022-07-17T01:41:59;17.70;52.30
19174;DHT22;9719;49.322;8.536;2022-07-17T01:47:01;17.60;52.60
19174;DHT22;9719;49.322;8.536;2022-07-17T01:52:05;17.50;52.90
19174;DHT22;9719;49.322;8.536;2022-07-17T01:57:08;17.50;53.20
19174;DHT22;9719;49.322;8.536;2022-07-17T02:02:11;17.30;53.20
19174;DHT22;9719;49.322;8.536;2022-07-17T02:07:15;17.00;53.50
19174;DHT22;9719;49.322;8.536;2022-07-17T02:12:17;16.90;54.20
19174;DHT22;9719;49.322;8.536;2022-07-17T02:17:19;16.70;54.60
19174;DHT22;9719;49.322;8.536;2022-07-17T02:22:22;16.50;55.00
19174;DHT22;9719;49.322;8.536;2022-07-17T02:27:24;16.50;55.30
19174;DHT22;9719;49.322;8.536;2022-07-17T02:32:26;16.40;55.50
19174;DHT22;9719;49.322;8.536;2022-07-17T02:37:29;16.30;55.70
19174;DHT22;9719;49.322;8.536;2022-07-17T02:42:31;16.30;56.00
19174;DHT22;9719;49.322;8.536;2022-07-17T02:47:34;16.10;56.10
19174;DHT22;9719;49.322;8.536;2022-07-17T02:52:38;15.90;55.50
19174;DHT22;9719;49.322;8.536;2022-07-17T02:57:40;15.70;55.80
19174;DHT22;9719;49.322;8.536;2022-07-17T03:02:42;15.60;56.20
19174;DHT22;9719;49.322;8.536;2022-07-17T03:07:45;15.40;56.80
19174;DHT22;9719;49.322;8.536;2022-07-17T03:12:48;15.30;57.50
19174;DHT22;9719;49.322;8.536;2022-07-17T03:17:50;15.30;58.00
19174;DHT22;9719;49.322;8.536;2022-07-17T03:22:53;15.30;58.40
19174;DHT22;9719;49.322;8.536;2022-07-17T03:27:55;15.40;58.80
19174;DHT22;9719;49.322;8.536;2022-07-17T03:32:57;15.30;58.90
19174;DHT22;9719;49.322;8.536;2022-07-17T03:38:00;15.30;59.10
19174;DHT22;9719;49.322;8.536;2022-07-17T03:43:02;15.20;59.30
19174;DHT22;9719;49.322;8.536;2022-07-17T03:48:04;15.10;59.60
19174;DHT22;9719;49.322;8.536;2022-07-17T03:53:07;15.10;60.10
19174;DHT22;9719;49.322;8.536;2022-07-17T03:58:09;15.00;60.30
19174;DHT22;9719;49.322;8.536;2022-07-17T04:03:11;15.00;60.50
19174;DHT22;9719;49.322;8.536;2022-07-17T04:08:14;14.90;60.80
19174;DHT22;9719;49.322;8.536;2022-07-17T04:13:16;14.90;61.20
19174;DHT22;9719;49.322;8.536;2022-07-17T04:18:19;14.90;61.50
19174;DHT22;9719;49.322;8.536;2022-07-17T04:23:23;14.90;62.00
19174;DHT22;9719;49.322;8.536;2022-07-17T04:28:25;14.90;62.20
19174;DHT22;9719;49.322;8.536;2022-07-17T04:33:27;15.00;62.40
19174;DHT22;9719;49.322;8.536;2022-07-17T04:38:31;15.10;62.70
19174;DHT22;9719;49.322;8.536;2022-07-17T04:43:33;15.20;63.00
19174;DHT22;9719;49.322;8.536;2022-07-17T04:48:34;15.30;63.00
19174;DHT22;9719;49.322;8.536;2022-07-17T04:53:38;15.40;63.10
19174;DHT22;9719;49.322;8.536;2022-07-17T04:58:40;15.50;63.30
19174;DHT22;9719;49.322;8.536;2022-07-17T05:03:42;15.70;63.40
19174;DHT22;9719;49.322;8.536;2022-07-17T05:08:45;15.80;63.20
19174;DHT22;9719;49.322;8.536;2022-07-17T05:13:47;16.00;63.30
19174;DHT22;9719;49.322;8.536;2022-07-17T05:18:49;16.20;63.10
19174;DHT22;9719;49.322;8.536;2022-07-17T05:23:52;16.40;63.00
19174;DHT22;9719;49.322;8.536;2022-07-17T05:28:54;16.60;63.20
19174;DHT22;9719;49.322;8.536;2022-07-17T05:33:56;16.90;63.10
19174;DHT22;9719;49.322;8.536;2022-07-17T05:39:00;17.10;63.20
19174;DHT22;9719;49.322;8.536;2022-07-17T05:44:02;17.30;63.20
19174;DHT22;9719;49.322;8.536;2022-07-17T05:49:05;17.50;63.00
19174;DHT22;9719;49.322;8.536;2022-07-17T05:54:09;17.70;62.80
19174;DHT22;9719;49.322;8.536;2022-07-17T05:59:11;17.90;62.80
19174;DHT22;9719;49.322;8.536;2022-07-17T06:04:12;18.20;62.50
19174;DHT22;9719;49.322;8.536;2022-07-17T06:09:16;18.60;61.70
19174;DHT22;9719;49.322;8.536;2022-07-17T06:14:18;19.10;60.90
19174;DHT22;9719;49.322;8.536;2022-07-17T06:19:20;19.60;60.30
19174;DHT22;9719;49.322;8.536;2022-07-17T06:24:23;20.00;60.10
19174;DHT22;9719;49.322;8.536;2022-07-17T06:29:25;20.30;59.50
19174;DHT22;9719;49.322;8.536;2022-07-17T06:34:27;20.40;58.60
19174;DHT22;9719;49.322;8.536;2022-07-17T06:39:30;20.60;57.90
19174;DHT22;9719;49.322;8.536;2022-07-17T06:44:33;20.70;57.90
19174;DHT22;9719;49.322;8.536;2022-07-17T06:49:35;21.00;57.60
19174;DHT22;9719;49.322;8.536;2022-07-17T06:54:41;21.30;57.10
19174;DHT22;9719;49.322;8.536;2022-07-17T06:59:43;21.50;55.90
19174;DHT22;9719;49.322;8.536;2022-07-17T07:04:45;21.70;55.60
19174;DHT22;9719;49.322;8.536;2022-07-17T07:09:52;22.20;54.50
19174;DHT22;9719;49.322;8.536;2022-07-17T07:15:01;22.20;53.20
19174;DHT22;9719;49.322;8.536;2022-07-17T07:20:15;22.30;52.20
19174;DHT22;9719;49.322;8.536;2022-07-17T07:25:36;22.50;51.50
19174;DHT22;9719;49.322;8.536;2022-07-17T07:30:42;22.80;50.90
19174;DHT22;9719;49.322;8.536;2022-07-17T07:35:45;23.00;50.10
19174;DHT22;9719;49.322;8.536;2022-07-17T07:40:51;23.10;49.60
19174;DHT22;9719;49.322;8.536;2022-07-17T07:45:53;23.20;49.10
19174;DHT22;9719;49.322;8.536;2022-07-17T07:51:02;23.50;48.40
19174;DHT22;9719;49.322;8.536;2022-07-17T07:56:12;23.70;47.60
19174;DHT22;9719;49.322;8.536;2022-07-17T08:01:15;23.70;46.80
19174;DHT22;9719;49.322;8.536;2022-07-17T08:06:18;24.00;46.60
19174;DHT22;9719;49.322;8.536;2022-07-17T08:11:24;24.10;45.90
19174;DHT22;9719;49.322;8.536;2022-07-17T08:16:26;24.20;45.50
19174;DHT22;9719;49.322;8.536;2022-07-17T08:21:33;24.40;45.00
19174;DHT22;9719;49.322;8.536;2022-07-17T08:26:37;24.60;44.60
19174;DHT22;9719;49.322;8.536;2022-07-17T08:31:42;24.90;44.10
19174;DHT22;9719;49.322;8.536;2022-07-17T08:36:44;24.80;43.70
19174;DHT22;9719;49.322;8.536;2022-07-17T08:42:03;25.10;43.20
19174;DHT22;9719;49.322;8.536;2022-07-17T08:47:08;25.20;43.00
19174;DHT22;9719;49.322;8.536;2022-07-17T08:52:11;25.40;42.30
19174;DHT22;9719;49.322;8.536;2022-07-17T08:57:14;25.50;41.40
19174;DHT22;9719;49.322;8.536;2022-07-17T09:02:16;25.70;41.20
19174;DHT22;9719;49.322;8.536;2022-07-17T09:07:18;25.90;40.70
19174;DHT22;9719;49.322;8.536;2022-07-17T09:12:25;26.10;40.40
19174;DHT22;9719;49.322;8.536;2022-07-17T09:17:28;26.30;39.60
19174;DHT22;9719;49.322;8.536;2022-07-17T09:22:30;26.50;39.10
19174;DHT22;9719;49.322;8.536;2022-07-17T09:27:34;26.80;38.60
19174;DHT22;9719;49.322;8.536;2022-07-17T09:32:41;27.40;38.10
19174;DHT22;9719;49.322;8.536;2022-07-17T09:37:45;29.40;36.30
19174;DHT22;9719;49.322;8.536;2022-07-17T09:42:55;30.60;34.20
19174;DHT22;9719;49.322;8.536;2022-07-17T09:47:58;31.90;31.70
19174;DHT22;9719;49.322;8.536;2022-07-17T09:53:01;33.00;31.90
19174;DHT22;9719;49.322;8.536;2022-07-17T09:58:05;34.30;29.70
19174;DHT22;9719;49.322;8.536;2022-07-17T10:03:08;35.50;27.50
19174;DHT22;9719;49.322;8.536;2022-07-17T10:08:10;36.60;25.60
19174;DHT22;9719;49.322;8.536;2022-07-17T10:13:14;37.80;24.00
19174;DHT22;9719;49.322;8.536;2022-07-17T10:18:20;38.50;21.70
19174;DHT22;9719;49.322;8.536;2022-07-17T10:23:22;38.50;20.40
19174;DHT22;9719;49.322;8.536;2022-07-17T10:28:37;37.70;20.50
19174;DHT22;9719;49.322;8.536;2022-07-17T10:33:39;37.30;20.40
19174;DHT22;9719;49.322;8.536;2022-07-17T10:38:41;36.50;19.90
19174;DHT22;9719;49.322;8.536;2022-07-17T10:43:48;35.80;20.30
19174;DHT22;9719;49.322;8.536;2022-07-17T10:48:53;34.60;20.50
19174;DHT22;9719;49.322;8.536;2022-07-17T10:53:56;34.90;20.90
19174;DHT22;9719;49.322;8.536;2022-07-17T10:59:02;34.70;20.80
19174;DHT22;9719;49.322;8.536;2022-07-17T11:04:05;34.30;21.40
19174;DHT22;9719;49.322;8.536;2022-07-17T11:09:09;34.10;21.50
19174;DHT22;9719;49.322;8.536;2022-07-17T11:14:15;33.80;21.40
19174;DHT22;9719;49.322;8.536;2022-07-17T11:19:21;33.60;21.50
19174;DHT22;9719;49.322;8.536;2022-07-17T11:24:24;33.50;22.00
19174;DHT22;9719;49.322;8.536;2022-07-17T11:29:28;33.20;22.20
19174;DHT22;9719;49.322;8.536;2022-07-17T11:34:30;33.00;22.30
19174;DHT22;9719;49.322;8.536;2022-07-17T11:39:38;32.90;22.00
19174;DHT22;9719;49.322;8.536;2022-07-17T11:44:41;32.80;22.30
19174;DHT22;9719;49.322;8.536;2022-07-17T11:49:44;32.60;22.00
19174;DHT22;9719;49.322;8.536;2022-07-17T11:54:47;32.60;22.50
19174;DHT22;9719;49.322;8.536;2022-07-17T11:59:51;32.50;22.90
19174;DHT22;9719;49.322;8.536;2022-07-17T12:04:55;32.50;23.00
19174;DHT22;9719;49.322;8.536;2022-07-17T12:09:57;32.50;22.80
19174;DHT22;9719;49.322;8.536;2022-07-17T12:15:01;32.60;22.60
19174;DHT22;9719;49.322;8.536;2022-07-17T12:20:03;32.60;22.60
19174;DHT22;9719;49.322;8.536;2022-07-17T12:25:06;32.60;22.60
19174;DHT22;9719;49.322;8.536;2022-07-17T12:30:10;31.70;22.30
19174;DHT22;9719;49.322;8.536;2022-07-17T12:35:12;32.60;23.00
19174;DHT22;9719;49.322;8.536;2022-07-17T12:40:14;32.70;22.30
19174;DHT22;9719;49.322;8.536;2022-07-17T12:45:17;32.60;21.90
19174;DHT22;9719;49.322;8.536;2022-07-17T12:50:19;32.50;22.60
19174;DHT22;9719;49.322;8.536;2022-07-17T12:55:21;32.60;22.50
19174;DHT22;9719;49.322;8.536;2022-07-17T13:00:24;32.50;22.40
19174;DHT22;9719;49.322;8.536;2022-07-17T13:05:26;32.20;22.20
19174;DHT22;9719;49.322;8.536;2022-07-17T13:10:28;32.10;22.60
19174;DHT22;9719;49.322;8.536;2022-07-17T13:15:32;32.20;22.40
19174;DHT22;9719;49.322;8.536;2022-07-17T13:20:34;32.30;21.80
19174;DHT22;9719;49.322;8.536;2022-07-17T13:25:36;32.40;21.60
19174;DHT22;9719;49.322;8.536;2022-07-17T13:30:39;32.50;21.60
19174;DHT22;9719;49.322;8.536;2022-07-17T13:35:41;32.50;21.80
19174;DHT22;9719;49.322;8.536;2022-07-17T13:40:43;32.50;22.30
19174;DHT22;9719;49.322;8.536;2022-07-17T13:45:46;32.50;22.10
19174;DHT22;9719;49.322;8.536;2022-07-17T13:50:48;32.60;21.80
19174;DHT22;9719;49.322;8.536;2022-07-17T13:55:50;32.50;21.50
19174;DHT22;9719;49.322;8.536;2022-07-17T14:00:53;32.50;21.90
19174;DHT22;9719;49.322;8.536;2022-07-17T14:05:55;32.40;21.70
19174;DHT22;9719;49.322;8.536;2022-07-17T14:10:57;32.30;21.20
19174;DHT22;9719;49.322;8.536;2022-07-17T14:16:01;32.20;21.40
19174;DHT22;9719;49.322;8.536;2022-07-17T14:21:03;32.20;21.70
19174;DHT22;9719;49.322;8.536;2022-07-17T14:26:05;32.20;22.30
19174;DHT22;9719;49.322;8.536;2022-07-17T14:31:08;32.20;21.80
19174;DHT22;9719;49.322;8.536;2022-07-17T14:36:10;32.20;21.60
19174;DHT22;9719;49.322;8.536;2022-07-17T14:41:13;32.20;21.40
19174;DHT22;9719;49.322;8.536;2022-07-17T14:46:17;32.00;21.60
19174;DHT22;9719;49.322;8.536;2022-07-17T14:51:19;32.00;21.90
19174;DHT22;9719;49.322;8.536;2022-07-17T14:56:21;32.00;21.50
19174;DHT22;9719;49.322;8.536;2022-07-17T15:01:25;32.00;21.40
19174;DHT22;9719;49.322;8.536;2022-07-17T15:06:27;32.00;21.80
19174;DHT22;9719;49.322;8.536;2022-07-17T15:11:29;32.00;21.20
19174;DHT22;9719;49.322;8.536;2022-07-17T15:16:32;31.90;20.50
19174;DHT22;9719;49.322;8.536;2022-07-17T15:21:35;31.80;20.60
19174;DHT22;9719;49.322;8.536;2022-07-17T15:26:37;31.80;21.10
19174;DHT22;9719;49.322;8.536;2022-07-17T15:31:40;31.80;21.30
19174;DHT22;9719;49.322;8.536;2022-07-17T15:36:42;31.80;21.40
19174;DHT22;9719;49.322;8.536;2022-07-17T15:41:44;31.80;21.30
19174;DHT22;9719;49.322;8.536;2022-07-17T15:46:47;31.70;21.10
19174;DHT22;9719;49.322;8.536;2022-07-17T15:51:49;31.60;20.90
19174;DHT22;9719;49.322;8.536;2022-07-17T15:56:51;31.60;21.00
19174;DHT22;9719;49.322;8.536;2022-07-17T16:01:54;31.60;21.00
19174;DHT22;9719;49.322;8.536;2022-07-17T16:06:56;31.50;21.10
19174;DHT22;9719;49.322;8.536;2022-07-17T16:11:58;31.50;21.30
19174;DHT22;9719;49.322;8.536;2022-07-17T16:17:02;31.50;21.20
19174;DHT22;9719;49.322;8.536;2022-07-17T16:22:03;31.40;20.90
19174;DHT22;9719;49.322;8.536;2022-07-17T16:27:06;31.40;21.40
19174;DHT22;9719;49.322;8.536;2022-07-17T16:32:09;31.30;20.90
19174;DHT22;9719;49.322;8.536;2022-07-17T16:37:11;31.30;20.80
19174;DHT22;9719;49.322;8.536;2022-07-17T16:42:13;31.20;20.60
19174;DHT22;9719;49.322;8.536;2022-07-17T16:47:16;31.10;21.20
19174;DHT22;9719;49.322;8.536;2022-07-17T16:52:19;31.10;21.30
19174;DHT22;9719;49.322;8.536;2022-07-17T16:57:21;31.00;21.10
19174;DHT22;9719;49.322;8.536;2022-07-17T17:02:25;31.00;21.10
19174;DHT22;9719;49.322;8.536;2022-07-17T17:07:27;30.90;20.60
19174;DHT22;9719;49.322;8.536;2022-07-17T17:12:31;30.80;20.70
19174;DHT22;9719;49.322;8.536;2022-07-17T17:17:34;30.70;21.20
19174;DHT22;9719;49.322;8.536;2022-07-17T17:22:37;30.60;21.00
19174;DHT22;9719;49.322;8.536;2022-07-17T17:27:40;30.50;21.50
19174;DHT22;9719;49.322;8.536;2022-07-17T17:32:43;30.40;21.40
19174;DHT22;9719;49.322;8.536;2022-07-17T17:37:45;30.30;22.70
19174;DHT22;9719;49.322;8.536;2022-07-17T17:42:49;30.20;21.70
19174;DHT22;9719;49.322;8.536;2022-07-17T17:47:52;30.10;22.50
19174;DHT22;9719;49.322;8.536;2022-07-17T17:52:54;29.90;21.60
19174;DHT22;9719;49.322;8.536;2022-07-17T17:57:56;29.80;21.70
19174;DHT22;9719;49.322;8.536;2022-07-17T18:03:02;29.80;22.30
19174;DHT22;9719;49.322;8.536;2022-07-17T18:08:04;29.70;22.60
19174;DHT22;9719;49.322;8.536;2022-07-17T18:13:07;29.60;23.20
19174;DHT22;9719;49.322;8.536;2022-07-17T18:18:10;29.50;23.10
19174;DHT22;9719;49.322;8.536;2022-07-17T18:23:12;29.30;24.10
19174;DHT22;9719;49.322;8.536;2022-07-17T18:28:14;29.10;24.10
19174;DHT22;9719;49.322;8.536;2022-07-17T18:33:17;29.00;26.80
19174;DHT22;9719;49.322;8.536;2022-07-17T18:38:19;28.70;25.70
19174;DHT22;9719;49.322;8.536;2022-07-17T18:43:22;28.10;25.70
19174;DHT22;9719;49.322;8.536;2022-07-17T18:48:25;27.40;28.40
19174;DHT22;9719;49.322;8.536;2022-07-17T18:53:27;27.10;26.80
19174;DHT22;9719;49.322;8.536;2022-07-17T18:58:29;26.90;26.50
19174;DHT22;9719;49.322;8.536;2022-07-17T19:03:32;26.70;26.30
19174;DHT22;9719;49.322;8.536;2022-07-17T19:08:35;26.50;28.50
19174;DHT22;9719;49.322;8.536;2022-07-17T19:13:37;26.30;28.20
19174;DHT22;9719;49.322;8.536;2022-07-17T19:18:40;26.20;27.80
19174;DHT22;9719;49.322;8.536;2022-07-17T19:23:42;26.00;27.90
19174;DHT22;9719;49.322;8.536;2022-07-17T19:28:44;25.90;27.70
19174;DHT22;9719;49.322;8.536;2022-07-17T19:33:47;25.80;29.60
19174;DHT22;9719;49.322;8.536;2022-07-17T19:38:49;25.60;29.20
19174;DHT22;9719;49.322;8.536;2022-07-17T19:43:51;25.30;29.70
19174;DHT22;9719;49.322;8.536;2022-07-17T19:48:54;25.10;30.10
19174;DHT22;9719;49.322;8.536;2022-07-17T19:53:57;24.80;30.50
19174;DHT22;9719;49.322;8.536;2022-07-17T19:58:59;24.60;31.20
19174;DHT22;9719;49.322;8.536;2022-07-17T20:04:05;24.40;32.70
19174;DHT22;9719;49.322;8.536;2022-07-17T20:09:08;24.20;32.30
19174;DHT22;9719;49.322;8.536;2022-07-17T20:14:10;24.00;33.50
19174;DHT22;9719;49.322;8.536;2022-07-17T20:19:13;24.00;32.60
19174;DHT22;9719;49.322;8.536;2022-07-17T20:24:15;23.90;32.10
19174;DHT22;9719;49.322;8.536;2022-07-17T20:29:17;24.10;32.40
19174;DHT22;9719;49.322;8.536;2022-07-17T20:34:21;24.00;33.00
19174;DHT22;9719;49.322;8.536;2022-07-17T20:39:23;24.00;33.00
19174;DHT22;9719;49.322;8.536;2022-07-17T20:44:25;23.90;32.90
19174;DHT22;9719;49.322;8.536;2022-07-17T20:49:28;23.80;32.60
19174;DHT22;9719;49.322;8.536;2022-07-17T20:54:30;23.80;32.50
19174;DHT22;9719;49.322;8.536;2022-07-17T20:59:32;23.70;33.00
19174;DHT22;9719;49.322;8.536;2022-07-17T21:04:35;23.70;32.20
19174;DHT22;9719;49.322;8.536;2022-07-17T21:09:37;23.70;32.90
19174;DHT22;9719;49.322;8.536;2022-07-17T21:14:39;23.60;33.10
19174;DHT22;9719;49.322;8.536;2022-07-17T21:19:42;23.60;33.70
19174;DHT22;9719;49.322;8.536;2022-07-17T21:24:44;23.50;35.10
19174;DHT22;9719;49.322;8.536;2022-07-17T21:29:46;23.40;35.40
19174;DHT22;9719;49.322;8.536;2022-07-17T21:34:50;23.20;35.70
19174;DHT22;9719;49.322;8.536;2022-07-17T21:39:51;23.00;36.00
19174;DHT22;9719;49.322;8.536;2022-07-17T21:44:54;22.90;36.80
19174;DHT22;9719;49.322;8.536;2022-07-17T21:49:57;22.70;37.10
19174;DHT22;9719;49.322;8.536;2022-07-17T21:55:00;22.60;37.60
19174;DHT22;9719;49.322;8.536;2022-07-17T22:00:04;22.40;37.50
19174;DHT22;9719;49.322;8.536;2022-07-17T22:05:10;22.20;38.10
19174;DHT22;9719;49.322;8.536;2022-07-17T22:10:13;22.10;38.30
19174;DHT22;9719;49.322;8.536;2022-07-17T22:15:16;21.90;38.60
19174;DHT22;9719;49.322;8.536;2022-07-17T22:20:20;21.60;39.50
19174;DHT22;9719;49.322;8.536;2022-07-17T22:25:23;21.40;39.80
19174;DHT22;9719;49.322;8.536;2022-07-17T22:30:25;21.30;40.50
19174;DHT22;9719;49.322;8.536;2022-07-17T22:35:28;21.10;40.90
19174;DHT22;9719;49.322;8.536;2022-07-17T22:40:30;21.00;41.60
19174;DHT22;9719;49.322;8.536;2022-07-17T22:45:32;20.90;41.80
19174;DHT22;9719;49.322;8.536;2022-07-17T22:50:36;20.80;42.10
19174;DHT22;9719;49.322;8.536;2022-07-17T22:55:38;20.70;42.30
19174;DHT22;9719;49.322;8.536;2022-07-17T23:00:40;20.60;42.30
19174;DHT22;9719;49.322;8.536;2022-07-17T23:05:44;20.50;42.50
19174;DHT22;9719;49.322;8.536;2022-07-17T23:10:47;20.30;43.30
19174;DHT22;9719;49.322;8.536;2022-07-17T23:15:48;20.20;43.50
19174;DHT22;9719;49.322;8.536;2022-07-17T23:20:52;20.00;43.70
19174;DHT22;9719;49.322;8.536;2022-07-17T23:25:54;20.00;44.50
19174;DHT22;9719;49.322;8.536;2022-07-17T23:30:55;19.90;44.50
19174;DHT22;9719;49.322;8.536;2022-07-17T23:35:59;19.70;44.90
19174;DHT22;9719;49.322;8.536;2022-07-17T23:41:01;19.60;45.20
19174;DHT22;9719;49.322;8.536;2022-07-17T23:46:03;19.50;45.90
19174;DHT22;9719;49.322;8.536;2022-07-17T23:51:06;19.40;46.50
19174;DHT22;9719;49.322;8.536;2022-07-17T23:56:08;19.30;46.30
